Time;durP1;ratioP1;P1;durP2;ratioP2;P2;SDS_P1;SDS_P2;PMS_P1;PMS_P2;Temp;Humidity;BMP_temperature;BMP_pressure;BME280_temperature;BME280_humidity;BME280_pressure;Samples;Min_cycle;Max_cycle;Signal;HPM_P1;HPM_P2
2022/06/01 04:05:11;;;;;;;1.60;1.50;;;;;;;15.39;57.46;96388.06;6147932;23;20162;-93
2022/06/01 04:24:13;;;;;;;1.60;1.50;;;;;;;16.24;57.07;96527.00;6174953;23;20194;-92
2022/06/01 04:29:15;;;;;;;1.50;1.40;;;;;;;18.24;57.30;96871.41;6178240;23;20181;-91
2022/06/01 04:31:45;;;;;;;1.50;1.40;;;;;;;17.55;57.48;96805.59;6109584;23;20178;-94
2022/06/01 04:42:11;;;;;;;1.37;1.27;;;;;;;17.82;57.70;96798.00;6179554;23;20158;-94
2022/06/01 05:01:06;;;;;;;1.50;1.40;;;;;;;18.04;57.38;96836.91;6154566;23;20189;-92
2022/06/01 05:03:46;;;;;;;1.60;1.50;;;;;;;18.54;57.44;96911.41;6091949;23;20186;-94
2022/06/01 05:09:12;;;;;;;1.53;1.43;;;;;;;17.16;57.34;96715.34;6152839;23;20198;-94
2022/06/01 05:19:51;;;;;;;2.33;1.70;;;;;;;16.37;57.39;96540.94;6168953;23;20484;-94
2022/06/01 05:22:31;;;;;;;1.87;1.70;;;;;;;15.43;57.13;96427.03;6117929;23;20258;-94
2022/06/01 05:27:33;;;;;;;1.47;1.37;;;;;;;18.06;57.10;96863.22;6181933;23;20241;-92
2022/06/01 05:30:00;;;;;;;1.60;1.50;;;;;;;17.93;57.48;96802.63;6111534;23;20143;-93
2022/06/01 05:32:27;;;;;;;2.00;1.70;;;;;;;16.82;57.16;96631.31;6098381;23;20191;-92
2022/06/01 05:40:17;;;;;;;1.50;1.40;;;;;;;17.15;57.38;96707.69;6149009;23;20178;-92
2022/06/01 06:23:38;;;;;;;1.47;1.37;;;;;;;17.19;57.41;96732.34;6154041;23;20218;-93
2022/06/01 06:57:59;;;;;;;1.70;1.60;;;;;;;16.97;57.31;96680.03;6172497;23;20249;-94
2022/06/01 07:00:41;;;;;;;2.30;1.70;;;;;;;19.90;57.24;97198.47;6129794;23;20222;-92
2022/06/01 07:16:51;;;;;;;1.73;1.50;;;;;;;15.14;56.89;96370.28;6161798;23;20183;-92
2022/06/01 07:51:42;;;;;;;1.73;1.63;;;;;;;20.20;57.21;97223.22;6163382;23;20189;-93
2022/06/01 09:37:27;;;;;;;1.50;1.40;;;;;;;21.15;57.08;97335.00;6153881;23;20183;-93
2022/06/01 10:17:35;;;;;;;1.33;1.33;;;;;;;17.57;57.03;96755.72;6139640;23;20222;-94
2022/06/01 10:20:08;;;;;;;1.50;1.40;;;;;;;21.15;57.07;97334.13;6127464;23;20179;-93
2022/06/01 10:22:41;;;;;;;1.40;1.30;;;;;;;17.92;57.12;96794.97;6152469;23;20238;-93
2022/06/01 10:25:38;;;;;;;1.43;1.33;;;;;;;15.88;56.83;96486.88;6105051;23;20183;-95
2022/06/01 10:28:28;;;;;;;1.40;1.30;;;;;;;17.90;57.06;96766.94;6116457;23;20167;-93
2022/06/01 10:31:18;;;;;;;1.70;1.60;;;;;;;18.68;57.37;96895.72;6152188;23;20158;-94
2022/06/01 10:33:47;;;;;;;1.40;1.30;;;;;;;18.32;57.19;96889.47;6129069;23;20166;-93
2022/06/01 10:36:43;;;;;;;1.43;1.33;;;;;;;19.32;57.11;96995.31;6080481;23;20159;-92
2022/06/01 10:39:46;;;;;;;1.50;1.40;;;;;;;16.42;56.82;96504.81;6109553;23;20199;-90
2022/06/01 10:45:17;;;;;;;1.50;1.40;;;;;;;18.97;57.02;96930.56;6105423;23;20159;-92
2022/06/01 10:47:49;;;;;;;1.30;1.30;;;;;;;21.15;56.96;97306.03;6126851;23;20155;-90
2022/06/01 10:50:18;;;;;;;1.50;1.40;;;;;;;19.80;56.99;97076.63;6102025;23;20147;-92
2022/06/01 10:52:49;;;;;;;1.40;1.30;;;;;;;17.92;56.96;96820.38;6080272;23;20187;-93
2022/06/01 11:33:58;;;;;;;1.30;1.30;;;;;;;16.17;56.88;96483.66;6143180;23;20213;-92
2022/06/01 11:48:08;;;;;;;1.53;1.43;;;;;;;21.15;57.35;97273.66;6157079;23;20217;-94
2022/06/01 12:29:10;;;;;;;2.00;1.80;;;;;;;18.76;56.86;96879.00;6151761;23;20167;-92
2022/06/01 12:31:38;;;;;;;1.60;1.50;;;;;;;17.70;56.88;96709.53;6129921;23;20175;-93
2022/06/01 12:34:40;;;;;;;1.73;1.63;;;;;;;16.54;56.86;96471.41;6103637;23;20155;-92
2022/06/01 12:37:14;;;;;;;2.00;1.80;;;;;;;18.68;56.98;96816.84;6107096;23;20162;-95
2022/06/01 12:58:32;;;;;;;2.50;2.30;;;;;;;19.57;57.27;96962.94;6176769;23;20189;-93
2022/06/01 14:54:44;;;;;;;2.93;2.73;;;;;;;15.80;57.12;96349.81;6156508;23;20170;-93
2022/06/01 14:57:11;;;;;;;3.00;2.80;;;;;;;15.68;56.94;96292.84;6131683;23;20150;-93
2022/06/01 15:10:25;;;;;;;3.47;3.00;;;;;;;17.21;57.36;96598.72;6181614;23;20215;-93
2022/06/01 15:13:07;;;;;;;3.97;2.67;;;;;;;16.84;57.14;96497.72;6113346;23;20146;-95
2022/06/01 15:15:54;;;;;;;2.90;2.70;;;;;;;17.77;57.20;96659.78;6122272;23;20179;-94
2022/06/01 15:18:21;;;;;;;4.53;2.87;;;;;;;18.19;57.51;96733.13;6128428;23;20221;-93
2022/06/01 15:42:36;;;;;;;3.40;3.00;;;;;;;18.18;57.18;96731.38;6148868;23;20198;-91
2022/06/01 15:45:04;;;;;;;3.43;3.00;;;;;;;16.87;57.31;96527.44;6105699;23;20191;-93
2022/06/01 15:47:31;;;;;;;2.70;2.50;;;;;;;18.14;57.27;96710.88;6122390;23;20202;-93
2022/06/01 15:50:03;;;;;;;3.13;2.80;;;;;;;16.53;57.16;96401.22;6129457;23;20175;-92
2022/06/01 15:52:45;;;;;;;4.20;2.80;;;;;;;15.57;56.97;96279.00;6133777;23;20219;-92
2022/06/01 16:00:42;;;;;;;3.17;2.87;;;;;;;19.91;57.13;97066.72;6147675;23;20196;-93
2022/06/01 16:03:10;;;;;;;3.30;2.80;;;;;;;19.00;57.11;96846.63;6132485;23;20570;-92
2022/06/01 16:05:40;;;;;;;3.67;3.07;;;;;;;15.92;56.99;96342.63;6133103;23;20178;-93
2022/06/01 16:08:10;;;;;;;3.00;2.70;;;;;;;21.25;57.64;97261.97;6100772;23;20199;-92
2022/06/01 16:10:38;;;;;;;3.07;2.70;;;;;;;15.93;57.33;96405.13;6152468;23;20154;-90
2022/06/01 16:13:10;;;;;;;3.33;3.03;;;;;;;18.18;57.25;96727.97;6101116;23;20198;-93
2022/06/01 16:15:37;;;;;;;3.13;2.70;;;;;;;18.76;57.27;96871.38;6125626;23;20219;-95
2022/06/01 16:18:16;;;;;;;2.90;2.63;;;;;;;20.22;57.29;97120.38;6125548;23;20148;-94
2022/06/01 16:20:43;;;;;;;2.80;2.60;;;;;;;16.69;57.22;96471.03;6102071;23;20156;-94
2022/06/01 16:23:10;;;;;;;2.87;2.67;;;;;;;17.40;57.13;96606.97;6135769;23;20212;-94
2022/06/01 16:25:36;;;;;;;3.13;2.70;;;;;;;17.81;57.30;96676.84;6158137;23;20159;-94
2022/06/01 16:33:39;;;;;;;2.80;2.60;;;;;;;19.87;57.13;97027.53;6184237;23;20403;-94
2022/06/01 16:36:10;;;;;;;3.03;2.73;;;;;;;16.85;56.94;96522.31;6135735;23;20182;-93
2022/06/01 16:39:19;;;;;;;2.87;2.67;;;;;;;18.06;57.56;96748.78;6124485;23;20147;-93
2022/06/01 16:42:23;;;;;;;2.90;2.67;;;;;;;20.79;57.28;97251.31;6163637;23;20158;-94
2022/06/01 16:44:51;;;;;;;2.70;2.50;;;;;;;18.14;57.02;96752.44;6159828;23;20146;-92
2022/06/01 16:47:18;;;;;;;2.60;2.40;;;;;;;18.17;57.49;96750.00;6134179;23;20214;-92
2022/06/01 16:52:54;;;;;;;2.60;2.40;;;;;;;18.04;57.16;96724.16;6155021;23;20146;-94
2022/06/01 16:55:21;;;;;;;3.30;2.70;;;;;;;17.89;57.17;96700.81;6080741;23;20147;-94
2022/06/01 16:57:50;;;;;;;3.93;2.97;;;;;;;16.52;57.34;96530.50;6081603;23;20155;-93
2022/06/01 17:00:18;;;;;;;3.00;2.70;;;;;;;15.83;57.42;96352.47;6128377;23;20178;-93
2022/06/01 17:05:20;;;;;;;2.80;2.60;;;;;;;16.19;57.13;96451.59;6185307;23;20229;-93
2022/06/01 17:10:33;;;;;;;2.63;2.27;;;;;;;18.18;57.41;96779.69;6187459;23;20227;-93
2022/06/01 17:13:51;;;;;;;3.40;2.97;;;;;;;18.21;57.43;96837.41;6151020;23;20151;-93
2022/06/01 17:16:56;;;;;;;3.07;2.77;;;;;;;21.22;57.46;97279.78;6122153;23;20162;-94
2022/06/01 17:20:43;;;;;;;2.70;2.50;;;;;;;15.97;57.07;96401.03;6160699;23;20190;-94
2022/06/01 17:23:34;;;;;;;2.77;2.57;;;;;;;15.64;57.09;96351.81;6098170;23;20137;-92
2022/06/01 17:26:42;;;;;;;2.77;2.53;;;;;;;16.20;57.12;96431.38;6082536;23;20383;-93
2022/06/01 17:29:09;;;;;;;2.80;2.60;;;;;;;19.88;57.11;97089.59;6079523;23;20157;-92
2022/06/01 17:31:38;;;;;;;2.80;2.60;;;;;;;19.13;57.21;96937.81;6137513;23;20150;-94
2022/06/01 17:36:52;;;;;;;2.53;2.33;;;;;;;17.91;56.99;96737.28;6151896;23;20173;-94
2022/06/01 17:39:33;;;;;;;2.60;2.40;;;;;;;17.98;57.17;96777.34;6134573;23;20174;-93
2022/06/01 17:42:13;;;;;;;2.50;2.30;;;;;;;16.16;57.30;96498.00;6112604;23;20171;-93
2022/06/01 17:44:50;;;;;;;2.67;2.47;;;;;;;18.02;57.75;96781.72;6110648;23;20202;-93
2022/06/01 17:47:20;;;;;;;2.60;2.40;;;;;;;18.06;57.18;96814.06;6107526;23;20163;-94
2022/06/01 17:49:46;;;;;;;3.47;2.67;;;;;;;19.76;57.41;97089.25;6106150;23;20155;-94
2022/06/01 17:52:13;;;;;;;2.50;2.30;;;;;;;16.80;56.96;96625.31;6106641;23;20179;-93
2022/06/01 17:54:42;;;;;;;2.43;2.23;;;;;;;16.75;57.00;96550.72;6107821;23;20158;-93
2022/06/01 17:57:09;;;;;;;2.80;2.60;;;;;;;18.06;57.22;96789.47;6106384;23;20166;-93
2022/06/01 17:59:36;;;;;;;2.40;2.20;;;;;;;15.82;57.07;96393.81;6106438;23;20155;-94
2022/06/01 18:02:03;;;;;;;2.33;2.13;;;;;;;19.36;57.18;97056.59;6134734;23;20221;-93
2022/06/01 18:04:30;;;;;;;2.57;2.33;;;;;;;17.73;57.11;96806.19;6113688;23;20147;-92
2022/06/01 18:06:57;;;;;;;2.40;2.20;;;;;;;16.50;57.26;96552.41;6113745;23;20147;-94
2022/06/01 18:09:24;;;;;;;3.10;2.43;;;;;;;18.63;57.23;96899.84;6137536;23;20147;-95
2022/06/01 18:12:04;;;;;;;2.30;2.20;;;;;;;18.43;57.60;96866.94;6142221;23;20154;-94
2022/06/01 18:14:32;;;;;;;2.73;2.30;;;;;;;16.57;56.97;96572.94;6136646;23;20166;-93
2022/06/01 18:18:01;;;;;;;2.63;2.23;;;;;;;15.60;57.35;96395.56;6140790;23;20198;-93
2022/06/01 19:47:10;;;;;;;3.03;2.30;;;;;;;18.11;57.34;96907.44;6154691;23;20174;-93
2022/06/01 19:49:44;;;;;;;2.50;2.30;;;;;;;18.11;57.35;96873.53;6128826;23;20155;-92
2022/06/01 19:57:51;;;;;;;2.07;1.97;;;;;;;16.10;57.30;96594.09;6150804;23;20182;-93
2022/06/01 20:29:58;;;;;;;2.10;2.00;;;;;;;17.49;57.29;96804.50;6154618;23;20186;-94
2022/06/01 20:32:54;;;;;;;2.10;2.00;;;;;;;19.30;57.61;97112.47;6026196;23;20141;-94
2022/06/01 20:35:35;;;;;;;2.10;2.00;;;;;;;18.59;57.38;96989.59;6027917;23;20166;-94
2022/06/01 20:38:25;;;;;;;2.20;2.00;;;;;;;18.14;57.54;96947.38;6030179;23;20153;-93
2022/06/01 20:41:09;;;;;;;2.30;2.10;;;;;;;18.09;57.49;96918.41;6024347;23;20161;-94
2022/06/01 20:47:05;;;;;;;2.40;2.20;;;;;;;21.21;57.80;97454.41;6171012;23;20204;-93
2022/06/01 20:49:53;;;;;;;2.10;2.00;;;;;;;21.21;57.85;97462.97;6160250;23;20146;-94
2022/06/01 20:52:43;;;;;;;2.23;2.03;;;;;;;16.79;57.33;96706.44;6136314;23;20139;-95
2022/06/01 20:58:08;;;;;;;2.37;2.20;;;;;;;16.57;57.48;96699.75;6183271;23;20185;-94
2022/06/01 21:00:57;;;;;;;2.13;2.00;;;;;;;18.34;57.27;96973.47;6119973;23;20150;-93
2022/06/01 21:03:26;;;;;;;3.50;2.20;;;;;;;21.22;57.48;97453.59;6130507;23;20174;-93
2022/06/01 21:06:21;;;;;;;2.33;2.13;;;;;;;16.84;57.32;96708.31;6090041;23;20154;-94
2022/06/01 21:08:56;;;;;;;2.10;2.00;;;;;;;18.06;57.53;96933.56;6162190;23;20138;-94
2022/06/01 21:11:46;;;;;;;1.80;1.70;;;;;;;21.21;57.71;97491.06;6116605;23;20151;-93
2022/06/01 21:15:04;;;;;;;2.00;1.90;;;;;;;21.15;57.47;97528.34;6113896;23;20151;-94
2022/06/01 21:17:52;;;;;;;2.20;2.00;;;;;;;17.83;57.48;96909.88;6139243;23;20146;-94
2022/06/01 21:21:06;;;;;;;2.20;2.00;;;;;;;21.19;57.42;97461.16;6085215;23;20143;-94
2022/06/01 21:26:26;;;;;;;1.90;1.80;;;;;;;17.25;57.32;96794.38;6182907;23;20229;-94
2022/06/01 21:29:11;;;;;;;2.00;1.90;;;;;;;18.02;57.85;96935.13;6113553;23;20146;-94
2022/06/01 21:31:57;;;;;;;3.33;1.70;;;;;;;16.36;57.38;96692.22;6119982;23;20147;-94
2022/06/01 21:35:03;;;;;;;1.90;1.80;;;;;;;16.17;57.21;96646.72;6104261;23;20170;-93
2022/06/01 21:38:04;;;;;;;2.60;1.90;;;;;;;15.65;57.41;96586.47;6170220;23;20147;-93
2022/06/01 21:40:48;;;;;;;2.10;2.00;;;;;;;21.17;57.38;97471.34;6118026;23;20147;-94
2022/06/01 21:43:34;;;;;;;1.80;1.70;;;;;;;21.17;57.76;97514.78;6121351;23;20174;-96
2022/06/01 22:07:48;;;;;;;1.87;1.77;;;;;;;19.47;57.40;97184.34;6183846;23;20182;-93
2022/06/01 22:10:32;;;;;;;1.80;1.70;;;;;;;17.98;57.43;96950.22;6115134;23;20147;-93
2022/06/01 22:13:24;;;;;;;1.90;1.80;;;;;;;16.81;57.46;96797.00;6105431;23;20274;-94
2022/06/01 22:16:08;;;;;;;1.80;1.70;;;;;;;17.81;57.77;96947.09;6126186;23;20148;-94
2022/06/01 22:19:21;;;;;;;2.10;2.00;;;;;;;21.16;57.85;97486.63;6083040;23;20152;-94
2022/06/01 22:22:02;;;;;;;2.10;2.00;;;;;;;18.04;57.74;96961.47;6103627;23;20266;-94
2022/06/01 22:25:03;;;;;;;1.93;1.83;;;;;;;16.89;57.75;96774.44;6058883;23;20163;-93
2022/06/01 22:27:46;;;;;;;1.80;1.70;;;;;;;17.94;57.76;96945.81;6090725;23;20197;-94
2022/06/01 22:33:46;;;;;;;2.00;1.90;;;;;;;17.68;57.51;96891.56;6093109;23;20139;-94
2022/06/01 22:39:34;;;;;;;2.10;2.00;;;;;;;21.13;57.93;97496.75;6107733;23;20212;-94
2022/06/01 22:42:04;;;;;;;2.20;2.10;;;;;;;20.10;57.78;97311.31;6077350;23;20148;-93
2022/06/01 22:45:20;;;;;;;2.07;1.97;;;;;;;15.43;57.34;96551.94;6113747;23;20163;-93
2022/06/01 22:48:01;;;;;;;3.27;1.70;;;;;;;16.09;57.53;96675.13;6140089;23;20207;-94
2022/06/01 22:51:22;;;;;;;1.80;1.70;;;;;;;15.81;57.78;96607.38;6133859;23;20146;-94
2022/06/01 22:54:09;;;;;;;1.60;1.50;;;;;;;18.12;57.73;96964.28;6096594;23;20149;-93
2022/06/01 22:56:53;;;;;;;1.90;1.80;;;;;;;21.14;57.81;97485.72;6090762;23;20156;-94
2022/06/01 22:59:59;;;;;;;1.83;1.73;;;;;;;21.12;57.64;97490.81;6000540;23;20147;-93
2022/06/01 23:02:39;;;;;;;2.00;1.90;;;;;;;15.98;57.35;96613.94;5995809;23;20183;-94
2022/06/01 23:05:50;;;;;;;1.97;1.87;;;;;;;21.13;57.63;97482.31;5997695;23;20165;-94
2022/06/01 23:08:33;;;;;;;1.73;1.63;;;;;;;21.14;57.81;97478.06;5998205;23;20153;-94
2022/06/01 23:11:25;;;;;;;2.00;1.90;;;;;;;15.52;57.30;96518.47;5935447;24;20136;-94
2022/06/01 23:14:31;;;;;;;1.70;1.60;;;;;;;17.09;57.62;96792.13;5935163;24;20156;-93
2022/06/01 23:17:46;;;;;;;1.70;1.60;;;;;;;17.90;57.67;96966.88;5934825;24;20156;-93
2022/06/01 23:21:05;;;;;;;;;;;;;;;;;;;;;
2022/06/01 23:23:55;;;;;;;1.83;1.73;;;;;;;17.87;57.56;96948.97;6107711;23;20183;-93
2022/06/01 23:26:27;;;;;;;1.73;1.63;;;;;;;15.09;57.22;96505.00;6131477;23;20152;-94
2022/06/01 23:29:08;;;;;;;1.77;1.67;;;;;;;16.08;57.82;96689.47;6131223;23;20159;-95
2022/06/01 23:43:59;;;;;;;1.90;1.80;;;;;;;21.12;57.84;97484.81;6126620;23;20139;-93
2022/06/01 23:47:15;;;;;;;1.83;1.73;;;;;;;21.11;57.86;97478.81;6126044;23;20151;-93
2022/06/01 23:50:36;;;;;;;1.80;1.70;;;;;;;21.11;57.67;97483.09;6125871;23;20144;-93
2022/06/01 23:54:08;;;;;;;2.10;1.93;;;;;;;15.65;57.94;96592.41;6103328;23;20179;-94
2022/06/01 23:57:53;;;;;;;1.70;1.60;;;;;;;15.87;57.64;96653.19;6096920;23;20148;-94
